createdAt,value
2022-09-23T00:03:38.750Z,0.05
2022-09-23T00:08:35.944Z,0.05
2022-09-23T00:13:35.717Z,0.05
2022-09-23T00:18:34.707Z,0.05
2022-09-23T00:23:34.415Z,0.05
2022-09-23T00:28:32.910Z,0.05
2022-09-23T00:33:32.425Z,0.05
2022-09-23T00:38:32.740Z,0.05
2022-09-23T00:43:32.000Z,0.05
2022-09-23T00:48:31.341Z,0.05
2022-09-23T00:53:31.538Z,0.05
2022-09-23T00:58:27.611Z,0.05
2022-09-23T01:03:26.814Z,0.05
2022-09-23T01:08:24.675Z,0.05
2022-09-23T01:13:24.184Z,0.05
2022-09-23T01:18:25.281Z,0.05
2022-09-23T01:23:22.005Z,0.05
2022-09-23T01:28:22.368Z,0.05
2022-09-23T01:33:22.114Z,0.05
2022-09-23T01:38:09.284Z,0.05
2022-09-23T01:43:09.039Z,0.05
2022-09-23T01:48:09.023Z,0.05
2022-09-23T01:53:08.251Z,0.05
2022-09-23T01:58:07.332Z,0.05
2022-09-23T01:59:28.582Z,0.05
2022-09-23T02:04:28.429Z,0.05
2022-09-23T02:09:27.131Z,0.05
2022-09-23T02:14:28.198Z,0.05
2022-09-23T02:19:25.103Z,0.05
2022-09-23T02:24:25.044Z,0.05
2022-09-23T02:29:25.009Z,0.05
2022-09-23T02:34:24.779Z,0.05
2022-09-23T02:39:23.537Z,0.05
2022-09-23T02:44:22.853Z,0.05
2022-09-23T02:49:22.621Z,0.05
2022-09-23T02:54:23.060Z,0.05
2022-09-23T02:59:23.917Z,0.05
2022-09-23T03:04:23.968Z,0.05
2022-09-23T03:09:23.978Z,0.05
2022-09-23T03:14:22.258Z,0.05
2022-09-23T03:19:22.733Z,0.05
2022-09-23T03:24:22.882Z,0.05
2022-09-23T03:29:21.990Z,0.05
2022-09-23T03:34:22.426Z,0.05
2022-09-23T03:39:22.501Z,0.05
2022-09-23T03:44:22.991Z,0.05
2022-09-23T03:49:09.199Z,0.05
2022-09-23T03:54:09.694Z,0.05
2022-09-23T03:58:55.226Z,0.05
2022-09-23T04:03:56.154Z,0.05
2022-09-23T04:08:53.211Z,0.05
2022-09-23T04:13:53.209Z,0.05
2022-09-23T04:18:54.121Z,0.05
2022-09-23T04:23:53.301Z,0.05
2022-09-23T04:28:50.596Z,0.05
2022-09-23T04:33:50.734Z,0.05
2022-09-23T04:38:50.340Z,0.05
2022-09-23T04:43:50.590Z,0.05
2022-09-23T04:48:47.946Z,0.05
2022-09-23T04:53:47.674Z,0.06
2022-09-23T04:58:46.552Z,0.07
2022-09-23T05:03:46.586Z,0.09
2022-09-23T05:08:44.721Z,0.13
2022-09-23T05:13:44.568Z,0.19
2022-09-23T05:18:44.944Z,0.25
2022-09-23T05:23:43.975Z,0.25
2022-09-23T05:28:43.228Z,0.34
2022-09-23T05:33:42.674Z,0.44
2022-09-23T05:38:42.682Z,0.56
2022-09-23T05:43:41.886Z,0.69
2022-09-23T05:48:42.676Z,0.84
2022-09-23T05:53:39.693Z,0.99
2022-09-23T05:58:39.776Z,1.15
2022-09-23T06:03:38.434Z,1.32
2022-09-23T06:08:38.483Z,1.49
2022-09-23T06:13:37.838Z,1.68
2022-09-23T06:18:37.897Z,1.85
2022-09-23T06:23:43.213Z,2.02
2022-09-23T06:28:38.107Z,2.18
2022-09-23T06:33:39.483Z,2.32
2022-09-23T06:38:35.336Z,2.45
2022-09-23T06:43:34.649Z,2.62
2022-09-23T06:48:34.287Z,2.88
2022-09-23T06:53:33.451Z,3.02
2022-09-23T06:58:32.975Z,3.21
2022-09-23T07:03:33.565Z,3.37
2022-09-23T07:08:34.007Z,3.56
2022-09-23T07:13:31.691Z,3.82
2022-09-23T07:18:38.887Z,4.1
2022-09-23T07:23:31.448Z,4.39
2022-09-23T07:28:31.551Z,4.77
2022-09-23T07:33:35.247Z,5
2022-09-23T07:38:29.075Z,5.43
2022-09-23T07:43:29.520Z,6
2022-09-23T07:48:36.208Z,6.42
2022-09-23T07:53:27.786Z,6.58
2022-09-23T07:58:27.958Z,6.99
2022-09-23T07:59:49.144Z,6.98
2022-09-23T08:04:48.872Z,6.94
2022-09-23T08:09:47.304Z,7.26
2022-09-23T08:14:47.063Z,7.84
2022-09-23T08:19:50.499Z,8.1
2022-09-23T08:24:46.774Z,8.77
2022-09-23T08:29:45.943Z,10.11
2022-09-23T08:34:45.788Z,10.08
2022-09-23T08:39:45.774Z,10.79
2022-09-23T08:44:45.095Z,11.35
2022-09-23T08:49:46.199Z,12.01
2022-09-23T08:54:43.312Z,12.61
2022-09-23T08:58:53.806Z,13.37
2022-09-23T09:03:53.833Z,14.18
2022-09-23T09:08:53.147Z,14.29
2022-09-23T09:13:52.391Z,14.72
2022-09-23T09:18:52.989Z,14.99
2022-09-23T09:23:52.120Z,15.21
2022-09-23T09:28:59.028Z,15.51
2022-09-23T09:33:50.573Z,14.83
2022-09-23T09:38:50.298Z,16.26
2022-09-23T09:43:49.011Z,16.64
2022-09-23T09:48:51.023Z,16.8
2022-09-23T09:53:47.015Z,16.32
2022-09-23T09:58:46.653Z,17.85
2022-09-23T10:03:46.548Z,18.11
2022-09-23T10:08:46.679Z,17.74
2022-09-23T10:13:45.854Z,17.89
2022-09-23T10:18:46.180Z,18.28
2022-09-23T10:23:44.783Z,18.31
2022-09-23T10:28:44.854Z,18.85
2022-09-23T10:33:45.143Z,19.27
2022-09-23T10:38:42.979Z,19.44
2022-09-23T10:43:43.216Z,19.69
2022-09-23T10:48:42.200Z,19.98
2022-09-23T10:53:42.059Z,19.97
2022-09-23T10:58:40.499Z,20.37
2022-09-23T11:00:00.990Z,20.36
2022-09-23T11:05:00.751Z,20.58
2022-09-23T11:10:01.180Z,20.48
2022-09-23T11:14:58.354Z,20.69
2022-09-23T11:19:58.330Z,20.48
2022-09-23T11:24:57.138Z,19.55
2022-09-23T11:29:57.005Z,17.36
2022-09-23T11:34:57.433Z,18.61
2022-09-23T11:39:54.592Z,19.15
2022-09-23T11:44:54.815Z,19.66
2022-09-23T11:49:53.857Z,20.6
2022-09-23T11:54:53.199Z,18.84
2022-09-23T11:59:02.225Z,17.92
2022-09-23T12:03:56.636Z,18.37
2022-09-23T12:08:54.719Z,15.98
2022-09-23T12:13:55.630Z,17.29
2022-09-23T12:18:53.227Z,15.81
2022-09-23T12:23:52.507Z,17.22
2022-09-23T12:28:51.466Z,17.53
2022-09-23T12:33:51.986Z,14.78
2022-09-23T12:38:51.129Z,14.27
2022-09-23T12:43:51.370Z,16.01
2022-09-23T12:48:50.018Z,15.72
2022-09-23T12:53:50.906Z,15.44
2022-09-23T12:58:47.932Z,14.42
2022-09-23T13:03:47.930Z,9.81
2022-09-23T13:08:46.637Z,9.23
2022-09-23T13:13:46.256Z,8.85
2022-09-23T13:18:44.275Z,8.22
2022-09-23T13:23:44.168Z,8.87
2022-09-23T13:28:43.571Z,8.67
2022-09-23T13:33:42.874Z,8.62
2022-09-23T13:38:41.855Z,8.61
2022-09-23T13:43:44.006Z,8.53
2022-09-23T13:48:40.949Z,7.78
2022-09-23T13:53:40.656Z,7.67
2022-09-23T13:58:41.912Z,7.68
2022-09-23T14:03:39.275Z,7.5
2022-09-23T14:08:38.148Z,7.05
2022-09-23T14:13:37.689Z,6.64
2022-09-23T14:18:36.917Z,7.32
2022-09-23T14:23:36.056Z,5.92
2022-09-23T14:28:36.358Z,5.33
2022-09-23T14:33:35.152Z,5
2022-09-23T14:38:36.297Z,4.98
2022-09-23T14:43:33.247Z,4.77
2022-09-23T14:48:33.155Z,4.53
2022-09-23T14:53:32.842Z,4.33
2022-09-23T14:58:33.662Z,3.99
2022-09-23T14:59:54.463Z,3.93
2022-09-23T15:04:56.580Z,3.64
2022-09-23T15:09:53.481Z,3.44
2022-09-23T15:14:53.167Z,3.27
2022-09-23T15:19:51.993Z,3.02
2022-09-23T15:24:51.696Z,2.81
2022-09-23T15:29:51.087Z,2.63
2022-09-23T15:34:50.476Z,2.49
2022-09-23T15:39:50.770Z,2.29
2022-09-23T15:44:48.303Z,2.02
2022-09-23T15:49:47.719Z,1.82
2022-09-23T15:54:47.257Z,1.62
2022-09-23T15:59:24.630Z,1.45
2022-09-23T16:04:24.957Z,1.29
2022-09-23T16:09:24.448Z,1.21
2022-09-23T16:14:25.730Z,1.22
2022-09-23T16:19:22.633Z,1.14
2022-09-23T16:24:29.380Z,1
2022-09-23T16:29:22.899Z,0.91
2022-09-23T16:34:09.247Z,0.88
2022-09-23T16:39:10.000Z,0.82
2022-09-23T16:44:07.800Z,0.73
2022-09-23T16:49:08.236Z,0.65
2022-09-23T16:54:06.000Z,0.55
2022-09-23T16:58:52.724Z,0.45
2022-09-23T17:03:53.131Z,0.35
2022-09-23T17:08:52.473Z,0.26
2022-09-23T17:13:51.780Z,0.25
2022-09-23T17:18:50.815Z,0.18
2022-09-23T17:23:50.907Z,0.12
2022-09-23T17:28:50.798Z,0.09
2022-09-23T17:33:49.344Z,0.07
2022-09-23T17:38:49.880Z,0.06
2022-09-23T17:43:48.534Z,0.06
2022-09-23T17:48:47.641Z,0.05
2022-09-23T17:53:47.220Z,0.05
2022-09-23T17:58:46.111Z,0.05
2022-09-23T18:03:46.466Z,0.05
2022-09-23T18:08:45.568Z,0.05
2022-09-23T18:13:46.150Z,0.05
2022-09-23T18:18:43.498Z,0.05
2022-09-23T18:23:43.734Z,0.05
2022-09-23T18:28:42.141Z,0.05
2022-09-23T18:34:33.176Z,0.05
2022-09-23T18:38:40.694Z,0.05
2022-09-23T18:43:49.744Z,0.05
2022-09-23T18:48:41.751Z,0.05
2022-09-23T18:53:38.523Z,0.05
2022-09-23T18:58:38.242Z,0.05
2022-09-23T19:03:37.782Z,0.05
2022-09-23T19:08:37.487Z,0.05
2022-09-23T19:13:36.862Z,0.05
2022-09-23T19:18:36.811Z,0.05
2022-09-23T19:23:35.939Z,0.05
2022-09-23T19:28:36.506Z,0.05
2022-09-23T19:33:33.929Z,0.05
2022-09-23T19:38:33.893Z,0.05
2022-09-23T19:43:32.513Z,0.05
2022-09-23T19:48:32.363Z,0.05
2022-09-23T19:53:31.105Z,0.05
2022-09-23T19:58:30.288Z,0.05
2022-09-23T19:59:51.660Z,0.05
2022-09-23T20:04:51.045Z,0.05
2022-09-23T20:09:49.976Z,0.05
2022-09-23T20:14:50.081Z,0.05
2022-09-23T20:19:49.370Z,0.05
2022-09-23T20:24:48.655Z,0.05
2022-09-23T20:29:49.270Z,0.05
2022-09-23T20:34:46.367Z,0.05
2022-09-23T20:39:46.217Z,0.05
2022-09-23T20:44:46.099Z,0.05
2022-09-23T20:49:45.331Z,0.05
2022-09-23T20:54:44.778Z,0.05
2022-09-23T20:59:22.083Z,0.05
2022-09-23T21:04:22.259Z,0.05
2022-09-23T21:09:09.520Z,0.05
2022-09-23T21:14:09.253Z,0.05
2022-09-23T21:19:08.658Z,0.05
2022-09-23T21:25:29.935Z,0.05
2022-09-23T21:29:07.255Z,0.05
2022-09-23T21:34:07.361Z,0.05
2022-09-23T21:39:06.774Z,0.05
2022-09-23T21:44:06.892Z,0.05
2022-09-23T21:49:06.481Z,0.05
2022-09-23T21:54:03.967Z,0.05
2022-09-23T21:58:50.650Z,0.05
2022-09-23T22:03:51.183Z,0.05
2022-09-23T22:08:50.165Z,0.05
2022-09-23T22:13:48.673Z,0.05
2022-09-23T22:18:47.895Z,0.05
2022-09-23T22:23:48.678Z,0.05
2022-09-23T22:28:47.734Z,0.05
2022-09-23T22:33:46.299Z,0.05
2022-09-23T22:38:45.803Z,0.05
2022-09-23T22:43:45.919Z,0.05
2022-09-23T22:48:45.420Z,0.05
2022-09-23T22:53:44.679Z,0.05
2022-09-23T22:58:34.661Z,0.05
2022-09-23T23:03:30.277Z,0.05
2022-09-23T23:08:29.292Z,0.05
2022-09-23T23:13:30.144Z,0.05
2022-09-23T23:18:29.118Z,0.05
2022-09-23T23:23:27.717Z,0.05
2022-09-23T23:28:27.967Z,0.05
2022-09-23T23:33:25.587Z,0.05
2022-09-23T23:38:24.995Z,0.05
2022-09-23T23:43:25.399Z,0.05
2022-09-23T23:48:24.737Z,0.05
2022-09-23T23:53:22.955Z,0.05
2022-09-23T23:58:22.827Z,0.05
2022-09-23T23:59:44.287Z,0.05
